Time;durP1;ratioP1;P1;durP2;ratioP2;P2;SDS_P1;SDS_P2;PMS_P1;PMS_P2;Temp;Humidity;BMP_temperature;BMP_pressure;BME280_temperature;BME280_humidity;BME280_pressure;Samples;Min_cycle;Max_cycle;Signal;HPM_P1;HPM_P2
2022/09/11 00:00:50;;;;;;;2.78;1.00;;;15.00;82.10;;;13.81;100.00;96061.72;4966840;28;20038;-69
2022/09/11 00:03:17;;;;;;;2.75;0.80;;;15.00;82.20;;;13.81;100.00;96051.13;4992325;28;20411;-69
2022/09/11 00:05:42;;;;;;;1.58;0.60;;;15.00;82.10;;;13.81;100.00;96056.44;4986882;28;20030;-69
2022/09/11 00:08:10;;;;;;;2.67;0.70;;;15.00;81.80;;;13.80;100.00;96054.78;4975845;28;20465;-69
2022/09/11 00:10:38;;;;;;;1.70;0.60;;;15.00;81.90;;;13.78;100.00;96059.47;5003900;28;20062;-68
2022/09/11 00:13:09;;;;;;;2.25;0.70;;;14.90;81.90;;;13.75;100.00;96050.13;4976604;28;20419;-69
2022/09/11 00:15:39;;;;;;;3.08;0.70;;;14.90;82.00;;;13.76;100.00;96048.28;4972682;28;20065;-69
2022/09/11 00:18:06;;;;;;;1.23;0.60;;;15.00;81.90;;;13.77;100.00;96050.72;4971505;28;20035;-69
2022/09/11 00:20:32;;;;;;;2.72;0.68;;;15.00;81.60;;;13.78;100.00;96052.34;4973309;28;20502;-68
2022/09/11 00:23:03;;;;;;;1.42;0.70;;;15.00;81.70;;;13.76;100.00;96053.56;4977446;28;20046;-69
2022/09/11 00:25:33;;;;;;;1.25;0.70;;;15.00;81.40;;;13.76;100.00;96048.28;4969544;28;20049;-69
2022/09/11 00:28:00;;;;;;;1.67;0.68;;;15.00;81.50;;;13.76;100.00;96050.94;4967401;28;20161;-69
2022/09/11 00:30:26;;;;;;;1.65;0.73;;;15.00;81.50;;;13.76;100.00;96040.34;5002829;28;20091;-69
2022/09/11 00:32:52;;;;;;;3.45;0.90;;;15.00;81.30;;;13.76;100.00;96048.28;4995574;28;20101;-69
2022/09/11 00:35:17;;;;;;;4.63;1.05;;;15.00;81.30;;;13.76;100.00;96043.81;4981883;28;20459;-69
2022/09/11 00:37:43;;;;;;;4.25;0.95;;;15.00;81.10;;;13.74;100.00;96051.16;4981564;28;20533;-69
2022/09/11 00:40:09;;;;;;;3.28;1.35;;;15.00;81.10;;;13.75;100.00;96041.38;4979039;28;20053;-69
2022/09/11 00:42:35;;;;;;;3.38;1.20;;;15.00;81.40;;;13.77;100.00;96050.72;4984143;28;20066;-68
2022/09/11 00:45:05;;;;;;;2.53;0.90;;;15.10;81.10;;;13.77;100.00;96050.72;4985722;28;20072;-69
2022/09/11 00:47:31;;;;;;;4.82;0.75;;;15.00;81.10;;;13.78;100.00;96040.97;4987095;28;20137;-69
2022/09/11 00:50:02;;;;;;;3.03;0.77;;;15.00;80.70;;;13.77;100.00;96044.63;4984246;28;20470;-69
2022/09/11 00:52:31;;;;;;;3.80;0.98;;;15.00;81.00;;;13.77;100.00;96047.28;4955455;28;20355;-69
2022/09/11 00:55:00;;;;;;;1.75;0.80;;;15.00;80.60;;;13.75;100.00;96047.47;4986510;28;20062;-69
2022/09/11 00:57:29;;;;;;;4.72;0.80;;;15.00;80.70;;;13.76;100.00;96049.09;4969852;28;20031;-69
2022/09/11 00:59:57;;;;;;;2.15;0.60;;;15.00;80.70;;;13.76;100.00;96059.66;4969350;28;20026;-69
2022/09/11 01:02:23;;;;;;;1.40;0.70;;;15.00;80.60;;;13.75;100.00;96044.84;4960923;28;20125;-69
2022/09/11 01:04:49;;;;;;;2.65;0.80;;;15.00;80.70;;;13.75;100.00;96039.53;4975339;28;20031;-69
2022/09/11 01:07:15;;;;;;;2.47;0.80;;;14.90;80.70;;;13.75;100.00;96036.91;4984778;28;20601;-69
2022/09/11 01:09:41;;;;;;;1.90;0.80;;;15.00;80.80;;;13.76;100.00;96043.00;4973571;28;20053;-69
2022/09/11 01:12:18;;;;;;;3.03;0.60;;;15.00;80.80;;;13.75;100.00;96041.38;4969684;28;20058;-69
2022/09/11 01:14:54;;;;;;;4.38;0.85;;;14.90;80.80;;;13.74;100.00;96039.75;4995812;28;20056;-69
2022/09/11 01:17:45;;;;;;;3.65;1.00;;;15.00;80.80;;;13.74;100.00;96039.75;5004843;28;20030;-69
2022/09/11 01:20:32;;;;;;;4.18;0.90;;;14.90;80.70;;;13.71;100.00;96034.91;4991326;28;20035;-69
2022/09/11 01:23:39;;;;;;;2.35;0.77;;;14.90;81.00;;;13.74;100.00;96040.56;5001327;28;20046;-69
2022/09/11 01:26:46;;;;;;;1.90;0.73;;;15.00;80.90;;;13.72;100.00;96041.81;4992640;28;20113;-69
2022/09/11 01:29:30;;;;;;;3.35;0.90;;;14.90;81.10;;;13.69;100.00;96036.94;5001422;28;20026;-69
2022/09/11 01:32:14;;;;;;;4.10;0.82;;;14.80;81.10;;;13.67;100.00;96031.06;4982290;28;20050;-69
2022/09/11 01:34:56;;;;;;;3.72;0.80;;;14.90;81.10;;;13.66;100.00;96026.78;4980620;28;20049;-69
2022/09/11 01:37:37;;;;;;;1.55;0.90;;;14.80;80.80;;;13.65;100.00;96030.47;5005056;28;20044;-69
2022/09/11 01:40:09;;;;;;;3.25;1.05;;;14.90;80.90;;;13.64;100.00;96034.13;5002042;28;20034;-69
2022/09/11 01:42:35;;;;;;;2.25;0.85;;;14.80;81.00;;;13.61;100.00;96029.25;4990265;28;20485;-69
2022/09/11 01:45:01;;;;;;;3.60;0.82;;;14.90;80.90;;;13.62;100.00;96033.53;4993752;28;20053;-69
2022/09/11 01:47:26;;;;;;;4.63;0.77;;;14.80;81.10;;;13.60;100.00;96031.09;4993678;28;20084;-69
2022/09/11 01:49:57;;;;;;;2.70;0.80;;;14.80;81.10;;;13.61;100.00;96035.34;4994069;28;20046;-69
2022/09/11 01:52:26;;;;;;;3.05;0.85;;;14.90;81.20;;;13.62;100.00;96044.91;5024133;28;20534;-69
2022/09/11 01:55:08;;;;;;;1.87;0.73;;;14.80;81.10;;;13.60;100.00;96032.91;4984461;28;20427;-69
2022/09/11 01:57:52;;;;;;;3.10;0.80;;;14.80;81.50;;;13.61;100.00;96038.00;5003233;28;20092;-69
2022/09/11 02:00:17;;;;;;;2.83;1.10;;;14.80;81.30;;;13.61;100.00;96034.53;5010957;28;20034;-69
2022/09/11 02:02:52;;;;;;;1.45;0.70;;;14.90;81.20;;;13.60;100.00;96039.03;5005141;28;20030;-68
2022/09/11 02:05:24;;;;;;;3.17;0.85;;;14.80;81.40;;;13.61;100.00;96040.63;4992812;28;20030;-69
2022/09/11 02:08:15;;;;;;;2.55;0.70;;;14.80;81.30;;;13.60;100.00;96041.66;4990287;28;20030;-69
2022/09/11 02:10:51;;;;;;;4.18;1.08;;;14.80;81.30;;;13.60;100.00;96035.56;4988867;28;20049;-69
2022/09/11 02:13:28;;;;;;;7.80;1.13;;;14.90;81.40;;;13.61;100.00;96037.19;4986784;28;20041;-69
2022/09/11 02:16:13;;;;;;;2.25;1.05;;;14.80;81.90;;;13.60;100.00;96031.09;4974944;28;20149;-69
2022/09/11 02:18:44;;;;;;;4.10;1.02;;;14.80;82.20;;;13.58;100.00;96027.84;4988075;28;20102;-69
2022/09/11 02:21:10;;;;;;;2.97;1.17;;;14.80;82.70;;;13.58;100.00;96037.56;4984754;28;20533;-69
2022/09/11 02:23:35;;;;;;;2.45;0.90;;;14.80;82.60;;;13.56;100.00;96031.69;4954886;28;20039;-69
2022/09/11 02:26:01;;;;;;;2.17;0.80;;;14.80;82.80;;;13.52;100.00;96023.38;4981111;28;20038;-69
2022/09/11 02:28:28;;;;;;;1.58;0.82;;;14.80;83.00;;;13.54;100.00;96033.72;4987291;28;20451;-69
2022/09/11 02:30:53;;;;;;;3.47;0.88;;;14.80;82.90;;;13.53;100.00;96025.00;4994379;28;20046;-69
2022/09/11 02:33:34;;;;;;;4.35;0.80;;;14.80;83.20;;;13.55;100.00;96024.78;4978148;28;20046;-69
2022/09/11 02:36:18;;;;;;;2.85;0.90;;;14.80;83.20;;;13.52;100.00;96025.22;5009937;28;20045;-69
2022/09/11 02:39:30;;;;;;;3.63;1.00;;;14.70;83.30;;;13.51;100.00;96023.59;4985299;28;20554;-69
2022/09/11 02:42:34;;;;;;;3.05;1.10;;;14.70;83.50;;;13.45;100.00;96022.59;4977552;28;20081;-69
2022/09/11 02:45:33;;;;;;;2.10;0.82;;;14.60;83.60;;;13.43;100.00;96022.00;4995252;28;20568;-69
2022/09/11 02:48:35;;;;;;;2.50;1.05;;;14.70;83.90;;;13.40;100.00;96017.94;4997889;28;20057;-69
2022/09/11 02:51:24;;;;;;;1.80;0.70;;;14.60;84.10;;;13.38;100.00;96019.19;4987648;28;20039;-69
2022/09/11 02:54:01;;;;;;;2.17;0.90;;;14.60;84.00;;;13.36;100.00;96019.38;4966930;28;20041;-69
2022/09/11 02:56:47;;;;;;;3.22;0.90;;;14.60;84.00;;;13.39;100.00;96012.88;5000071;28;20575;-69
2022/09/11 02:59:20;;;;;;;3.53;0.98;;;14.70;83.90;;;13.40;100.00;96014.50;4972748;28;20034;-69
2022/09/11 03:01:54;;;;;;;5.07;0.88;;;14.60;83.80;;;13.37;100.00;96018.38;4983671;28;20026;-69
2022/09/11 03:04:21;;;;;;;3.97;1.25;;;14.70;83.90;;;13.38;100.00;96019.19;4976086;28;20564;-69
2022/09/11 03:06:48;;;;;;;2.72;1.10;;;14.60;83.90;;;13.35;100.00;96015.13;5003968;28;20042;-68
2022/09/11 03:09:15;;;;;;;4.45;1.17;;;14.60;84.00;;;13.37;100.00;96018.38;4988328;28;20561;-68
2022/09/11 03:11:41;;;;;;;5.03;1.30;;;14.60;83.90;;;13.37;100.00;96017.56;4991058;28;20084;-69
2022/09/11 03:14:07;;;;;;;2.95;0.90;;;14.60;83.90;;;13.36;100.00;96013.28;4992218;28;20533;-69
2022/09/11 03:16:33;;;;;;;3.00;0.93;;;14.70;84.00;;;13.39;100.00;96016.31;4984317;28;20038;-68
2022/09/11 03:18:59;;;;;;;2.53;0.90;;;14.70;83.80;;;13.40;100.00;96020.59;5004571;28;20046;-69
2022/09/11 03:21:24;;;;;;;2.60;0.90;;;14.80;83.70;;;13.41;100.00;96010.81;5000516;28;20085;-69
2022/09/11 03:23:50;;;;;;;3.70;1.10;;;14.70;83.50;;;13.41;100.00;96009.00;5015991;28;20038;-69
2022/09/11 03:26:16;;;;;;;6.03;1.00;;;14.70;83.60;;;13.39;100.00;96011.03;5010971;28;20419;-68
2022/09/11 03:28:43;;;;;;;3.65;1.10;;;14.60;83.50;;;13.38;100.00;96009.41;4993846;28;20030;-68
2022/09/11 03:31:09;;;;;;;3.85;1.10;;;14.60;83.60;;;13.35;100.00;96012.47;5010439;28;20034;-69
2022/09/11 03:33:35;;;;;;;4.32;1.10;;;14.60;83.60;;;13.36;100.00;96014.09;4993583;28;20022;-69
2022/09/11 03:36:00;;;;;;;5.80;1.10;;;14.60;83.80;;;13.36;100.00;96008.81;4981277;28;20073;-69
2022/09/11 03:38:26;;;;;;;4.25;0.93;;;14.60;83.80;;;13.36;100.00;96015.94;4975955;28;20454;-69
2022/09/11 03:40:53;;;;;;;4.28;0.88;;;14.60;83.60;;;13.35;100.00;96009.84;5006183;28;20041;-68
2022/09/11 03:43:20;;;;;;;3.53;0.90;;;14.60;83.80;;;13.35;100.00;96015.13;4993409;28;20547;-69
2022/09/11 03:45:48;;;;;;;3.15;0.73;;;14.60;83.70;;;13.34;100.00;96010.81;4990522;28;20466;-69
2022/09/11 03:48:15;;;;;;;6.22;1.25;;;14.60;83.90;;;13.35;100.00;96011.63;4983640;28;20038;-69
2022/09/11 03:50:40;;;;;;;2.55;1.10;;;14.60;83.80;;;13.35;100.00;96009.84;4990547;28;20448;-68
2022/09/11 03:53:06;;;;;;;3.20;0.85;;;14.60;83.70;;;13.36;100.00;96000.88;4975325;28;20085;-68
2022/09/11 03:55:32;;;;;;;4.35;1.10;;;14.60;83.60;;;13.37;100.00;95997.22;4982914;28;20043;-68
2022/09/11 03:57:58;;;;;;;2.92;0.90;;;14.60;83.30;;;13.37;100.00;95999.88;4991346;28;20254;-69
2022/09/11 04:00:25;;;;;;;2.33;1.05;;;14.70;83.40;;;13.40;100.00;96002.09;4994912;28;20506;-69
2022/09/11 04:02:50;;;;;;;3.22;1.00;;;14.70;83.30;;;13.39;100.00;96003.13;4998196;28;20117;-69
2022/09/11 04:05:16;;;;;;;2.97;1.10;;;14.70;83.30;;;13.38;100.00;96001.50;4995175;28;20093;-69
2022/09/11 04:07:42;;;;;;;4.25;1.02;;;14.70;83.50;;;13.39;100.00;96005.75;4970676;28;20484;-69
2022/09/11 04:10:08;;;;;;;2.90;1.00;;;14.70;83.40;;;13.39;100.00;96000.47;4970716;28;20046;-69
2022/09/11 04:12:34;;;;;;;2.72;1.10;;;14.70;83.40;;;13.41;100.00;96009.00;4954615;28;20039;-68
2022/09/11 04:15:01;;;;;;;1.98;1.00;;;14.70;83.50;;;13.39;100.00;95999.66;4961211;28;20045;-69
2022/09/11 04:17:29;;;;;;;4.65;1.15;;;14.70;83.70;;;13.40;100.00;96007.38;4970562;28;20045;-69
2022/09/11 04:19:54;;;;;;;3.13;1.02;;;14.70;83.40;;;13.43;100.00;96011.44;4965331;28;20117;-69
2022/09/11 04:22:20;;;;;;;3.75;1.35;;;14.80;83.50;;;13.43;100.00;95998.22;4990144;28;20462;-69
2022/09/11 04:24:46;;;;;;;2.17;0.95;;;14.70;83.50;;;13.40;100.00;95998.63;4991028;28;20706;-69
2022/09/11 04:27:12;;;;;;;1.73;0.88;;;14.60;83.60;;;13.40;100.00;95996.81;4989825;28;20042;-69
2022/09/11 04:29:37;;;;;;;3.10;1.40;;;14.70;83.60;;;13.42;100.00;96002.69;4971316;28;20445;-69
2022/09/11 04:32:03;;;;;;;3.88;1.23;;;14.70;83.60;;;13.38;100.00;95996.22;4987104;28;20133;-69
2022/09/11 04:34:29;;;;;;;3.13;1.13;;;14.70;83.50;;;13.38;100.00;96006.78;4989361;28;20040;-69
2022/09/11 04:36:55;;;;;;;2.92;1.15;;;14.60;83.70;;;13.38;100.00;96014.69;4984323;28;20041;-69
2022/09/11 04:39:21;;;;;;;3.50;1.00;;;14.60;83.70;;;13.38;100.00;96014.69;4989591;28;20026;-69
2022/09/11 04:41:47;;;;;;;4.22;1.25;;;14.60;83.60;;;13.37;100.00;96005.16;4989838;28;20121;-68
2022/09/11 04:44:13;;;;;;;3.20;1.27;;;14.60;83.50;;;13.38;100.00;96005.97;4989770;28;20046;-69
2022/09/11 04:46:40;;;;;;;4.28;1.20;;;14.60;83.50;;;13.39;100.00;96005.75;4986671;28;20035;-68
2022/09/11 04:49:07;;;;;;;4.13;1.20;;;14.70;83.40;;;13.42;100.00;96000.06;4993302;28;20025;-68
2022/09/11 04:51:34;;;;;;;3.35;1.10;;;14.70;83.20;;;13.42;100.00;96004.53;4992975;28;20030;-70
2022/09/11 04:54:00;;;;;;;2.00;0.77;;;14.70;83.00;;;13.43;100.00;96006.97;4997470;28;20105;-69
2022/09/11 04:56:31;;;;;;;2.15;1.00;;;14.80;83.20;;;13.43;100.00;96008.78;4989710;28;20453;-69
2022/09/11 04:59:04;;;;;;;3.45;1.10;;;14.70;83.20;;;13.44;100.00;96019.16;4965487;28;20046;-69
2022/09/11 05:01:30;;;;;;;4.18;1.13;;;14.70;82.70;;;13.45;100.00;96009.38;4972965;28;20057;-69
2022/09/11 05:03:56;;;;;;;8.02;1.27;;;14.70;82.90;;;13.47;100.00;96009.97;4978448;28;20035;-69
2022/09/11 05:06:22;;;;;;;2.65;1.17;;;14.80;82.50;;;13.49;100.00;96006.09;4982701;28;20498;-69
2022/09/11 05:08:48;;;;;;;4.25;1.90;;;14.80;82.10;;;13.51;100.00;96002.44;4988741;28;20069;-69
2022/09/11 05:11:15;;;;;;;2.55;1.20;;;14.80;82.30;;;13.53;100.00;96005.69;4957066;28;20033;-69
2022/09/11 05:13:41;;;;;;;5.20;1.27;;;14.80;82.20;;;13.55;100.00;96016.84;4968060;28;20030;-69
2022/09/11 05:16:12;;;;;;;4.97;1.20;;;14.80;82.30;;;13.53;100.00;96018.91;4976453;28;20454;-69
2022/09/11 05:18:38;;;;;;;;;;;14.70;82.40;;;13.54;100.00;96012.59;4984742;28;20409;-68
2022/09/11 05:21:10;;;;;;;4.13;1.50;;;14.80;82.30;;;13.52;100.00;96009.34;4969779;28;20378;-70
2022/09/11 05:23:35;;;;;;;5.55;1.38;;;14.80;82.40;;;13.53;100.00;96021.53;4964227;28;20031;-69
2022/09/11 05:26:03;;;;;;;2.20;1.00;;;14.80;82.20;;;13.54;100.00;96007.31;4957571;28;20534;-69
2022/09/11 05:28:29;;;;;;;4.32;1.20;;;14.80;82.10;;;13.56;100.00;96015.84;4950306;28;20039;-70
2022/09/11 05:30:55;;;;;;;2.88;1.40;;;14.80;82.00;;;13.52;100.00;96004.06;4984208;28;20065;-72
2022/09/11 05:33:24;;;;;;;3.60;1.60;;;14.80;82.10;;;13.59;100.00;96018.09;4954267;28;20459;-69
2022/09/11 05:35:53;;;;;;;3.90;1.83;;;14.90;81.80;;;13.61;100.00;96014.22;4977349;28;20111;-70
2022/09/11 05:38:19;;;;;;;2.88;1.55;;;14.90;82.00;;;13.63;100.00;96027.22;4988829;28;20461;-69
2022/09/11 05:40:48;;;;;;;3.35;1.20;;;15.00;81.70;;;13.64;100.00;96020.91;5000625;28;20030;-68
2022/09/11 05:43:14;;;;;;;2.00;1.10;;;14.90;81.70;;;13.65;100.00;96025.97;5005778;28;20477;-68
2022/09/11 05:45:41;;;;;;;3.75;1.08;;;14.90;81.70;;;13.68;100.00;96017.63;4990190;28;20046;-68
2022/09/11 05:48:08;;;;;;;4.13;1.35;;;15.00;81.60;;;13.67;100.00;96023.13;5004742;28;20057;-69
2022/09/11 05:50:34;;;;;;;3.65;1.77;;;14.90;81.80;;;13.69;100.00;96029.00;5017123;28;20041;-68
2022/09/11 05:52:59;;;;;;;4.38;1.50;;;15.00;81.80;;;13.70;100.00;96028.81;5002453;28;20046;-69
2022/09/11 05:55:25;;;;;;;2.63;1.10;;;15.00;81.90;;;13.71;100.00;96033.06;5004416;28;20041;-69
2022/09/11 05:57:51;;;;;;;4.88;1.38;;;15.10;82.00;;;13.72;100.00;96036.53;4996373;28;20084;-68
2022/09/11 06:00:17;;;;;;;2.63;1.35;;;15.00;81.90;;;13.71;100.00;96033.06;4988265;28;20042;-68
2022/09/11 06:02:44;;;;;;;3.13;1.52;;;15.10;82.20;;;13.74;100.00;96048.50;4998170;28;20616;-68
2022/09/11 06:05:09;;;;;;;4.20;2.03;;;15.10;82.50;;;13.75;100.00;96041.38;4988859;28;20034;-68
2022/09/11 06:07:35;;;;;;;7.20;4.82;;;15.10;82.10;;;13.77;100.00;96045.44;4990409;28;20096;-68
2022/09/11 06:10:01;;;;;;;8.63;3.35;;;15.10;82.20;;;13.81;100.00;96051.13;5003789;28;20442;-69
2022/09/11 06:12:27;;;;;;;4.55;2.50;;;15.20;82.10;;;13.82;100.00;96052.75;4990325;28;20506;-68
2022/09/11 06:14:53;;;;;;;3.58;1.33;;;15.10;82.00;;;13.81;100.00;96050.31;5018651;28;20093;-68
2022/09/11 06:17:20;;;;;;;4.32;1.40;;;15.10;82.10;;;13.81;100.00;96051.13;5002161;28;20423;-69
2022/09/11 06:19:46;;;;;;;3.80;1.27;;;15.10;81.90;;;13.83;100.00;96057.03;4990725;28;20111;-67
2022/09/11 06:22:12;;;;;;;2.72;1.10;;;15.10;82.30;;;13.82;100.00;96057.25;4988123;28;20042;-69
2022/09/11 06:24:37;;;;;;;3.50;1.10;;;15.10;82.40;;;13.83;100.00;96059.66;4972613;28;20465;-67
2022/09/11 06:27:03;;;;;;;3.17;1.30;;;15.10;82.70;;;13.82;100.00;96058.03;5008968;28;20049;-68
2022/09/11 06:29:31;;;;;;;3.45;1.38;;;15.10;82.80;;;13.82;100.00;96057.25;4990982;28;20038;-68
2022/09/11 06:31:57;;;;;;;3.20;1.35;;;15.10;83.00;;;13.82;100.00;96067.81;4978223;28;20044;-68
2022/09/11 06:34:23;;;;;;;5.32;1.40;;;15.10;83.40;;;13.79;100.00;96063.72;4988360;28;20057;-68
2022/09/11 06:36:49;;;;;;;3.08;1.58;;;15.00;83.70;;;13.76;100.00;96064.16;4986435;28;20038;-67
2022/09/11 06:39:15;;;;;;;4.30;1.50;;;15.00;83.70;;;13.74;100.00;96060.91;4989049;28;20034;-67
2022/09/11 06:41:41;;;;;;;6.38;2.40;;;15.10;84.00;;;13.77;100.00;96068.41;4982670;28;20026;-67
2022/09/11 06:44:08;;;;;;;3.72;1.63;;;15.10;84.00;;;13.79;100.00;96064.53;5003678;28;20041;-70
2022/09/11 06:46:34;;;;;;;3.65;1.90;;;15.20;83.60;;;13.81;100.00;96080.22;5024239;28;20053;-71
2022/09/11 06:49:01;;;;;;;4.20;1.70;;;15.20;83.30;;;13.84;100.00;96069.22;4990963;28;20058;-67
2022/09/11 06:51:26;;;;;;;4.10;1.95;;;15.30;83.20;;;13.88;100.00;96073.06;4992329;28;20026;-68
2022/09/11 06:53:56;;;;;;;6.05;2.03;;;15.30;83.10;;;13.90;100.00;96076.31;5007412;28;20030;-68
2022/09/11 06:56:22;;;;;;;4.47;2.20;;;15.30;83.00;;;13.94;100.00;96074.84;4992601;28;20038;-69
2022/09/11 06:58:49;;;;;;;5.13;2.22;;;15.40;83.00;;;13.99;100.00;96069.75;5007948;28;20041;-68
2022/09/11 07:01:19;;;;;;;3.58;1.92;;;15.60;82.80;;;14.10;100.00;96070.94;5006783;28;20057;-72
2022/09/11 07:03:46;;;;;;;4.93;2.60;;;15.60;82.70;;;14.16;100.00;96083.31;4990121;28;20026;-70
2022/09/11 07:06:13;;;;;;;3.93;2.30;;;15.60;82.70;;;14.18;100.00;96080.44;4992420;28;20300;-71
2022/09/11 07:08:39;;;;;;;4.93;2.80;;;15.60;83.00;;;14.22;100.00;96086.94;4976685;28;20386;-71
2022/09/11 07:11:06;;;;;;;5.05;2.47;;;15.60;83.20;;;14.21;100.00;96082.66;4991838;28;20053;-71
2022/09/11 07:13:33;;;;;;;5.38;2.40;;;15.60;83.30;;;14.24;100.00;96076.94;5007638;28;20033;-68
2022/09/11 07:16:04;;;;;;;4.32;2.20;;;15.60;82.70;;;14.25;100.00;96083.84;5003471;28;20086;-72
2022/09/11 07:18:37;;;;;;;;;;;15.70;83.10;;;14.24;100.00;96087.53;4992415;28;20592;-70
2022/09/11 07:21:20;;;;;;;3.88;1.52;;;15.70;83.00;;;14.30;100.00;96086.69;4982705;28;19917;-70
2022/09/11 07:23:48;;;;;;;3.47;1.73;;;15.90;82.60;;;14.40;100.00;96087.03;4981013;28;20133;-70
2022/09/11 07:26:15;;;;;;;3.03;1.80;;;16.10;82.40;;;14.45;100.00;96084.59;4982037;28;20524;-69
2022/09/11 07:28:41;;;;;;;5.07;1.83;;;15.90;82.30;;;14.48;100.00;96089.44;4981813;28;20038;-70
2022/09/11 07:31:14;;;;;;;2.75;1.50;;;15.90;82.40;;;14.49;100.00;96101.69;4972082;28;21956;-70
2022/09/11 07:33:44;;;;;;;3.05;1.80;;;15.90;82.30;;;14.47;100.00;96101.06;4981094;28;20108;-71
2022/09/11 07:36:22;;;;;;;4.43;1.90;;;15.80;82.50;;;14.46;100.00;96106.56;4979277;28;20093;-69
2022/09/11 07:38:48;;;;;;;4.82;2.40;;;15.70;82.70;;;14.40;100.00;96113.50;4998103;28;20034;-69
2022/09/11 07:41:15;;;;;;;5.13;2.20;;;15.60;82.90;;;14.39;100.00;96123.28;4999222;28;20023;-70
2022/09/11 07:43:41;;;;;;;3.92;1.77;;;15.70;83.20;;;14.37;100.00;96111.28;4966640;28;20564;-70
2022/09/11 07:46:08;;;;;;;3.35;1.88;;;15.70;82.90;;;14.38;100.00;96115.53;4973182;28;20044;-70
2022/09/11 07:48:34;;;;;;;3.47;1.88;;;15.80;82.80;;;14.40;100.00;96110.84;5003919;28;20038;-71
2022/09/11 07:51:03;;;;;;;5.88;3.55;;;15.80;83.20;;;14.43;100.00;96112.25;5000075;28;20076;-70
2022/09/11 07:53:36;;;;;;;5.53;3.15;;;15.80;82.90;;;14.44;100.00;96120.00;5001040;28;20041;-71
2022/09/11 07:56:08;;;;;;;6.43;3.83;;;15.80;82.80;;;14.48;100.00;96125.69;5005057;28;20044;-69
2022/09/11 07:58:38;;;;;;;6.88;4.53;;;15.90;82.70;;;14.52;100.00;96130.38;4973884;28;20038;-70
2022/09/11 08:01:05;;;;;;;4.22;2.05;;;16.00;82.50;;;14.61;100.00;96126.44;4983856;28;20159;-70
2022/09/11 08:03:32;;;;;;;4.03;2.33;;;16.20;81.80;;;14.69;100.00;96128.00;5001116;28;20053;-69
2022/09/11 08:06:12;;;;;;;3.83;2.53;;;16.40;81.60;;;14.80;100.00;96129.19;5004819;28;20030;-69
2022/09/11 08:08:38;;;;;;;3.72;1.90;;;16.50;81.30;;;14.86;100.00;96131.75;5002363;28;20522;-69
2022/09/11 08:11:09;;;;;;;3.67;2.05;;;16.60;80.90;;;14.96;100.00;96136.59;4990841;28;20048;-69
2022/09/11 08:13:35;;;;;;;4.45;2.55;;;16.70;80.40;;;15.08;100.00;96142.81;5003765;28;20030;-68
2022/09/11 08:16:01;;;;;;;3.70;2.03;;;17.00;80.20;;;15.18;100.00;96140.50;4987595;28;20041;-69
2022/09/11 08:18:27;;;;;;;3.60;2.45;;;17.00;79.50;;;15.28;100.00;96145.31;5020627;28;20030;-68
2022/09/11 08:20:53;;;;;;;3.30;1.80;;;17.00;79.30;;;15.36;100.00;96154.81;4973479;28;20030;-68
2022/09/11 08:23:20;;;;;;;4.50;2.00;;;17.10;79.00;;;15.44;100.00;96146.59;4973597;28;20060;-68
2022/09/11 08:25:46;;;;;;;3.58;2.30;;;17.20;78.90;;;15.50;100.00;96153.66;5003949;28;20026;-69
2022/09/11 08:28:12;;;;;;;4.13;2.05;;;17.10;78.70;;;15.57;100.00;96155.22;4981269;28;20042;-69
2022/09/11 08:30:38;;;;;;;4.63;2.20;;;17.20;78.40;;;15.63;100.00;96161.53;4966111;28;20058;-69
2022/09/11 08:33:08;;;;;;;3.00;1.90;;;17.40;78.30;;;15.70;100.00;96162.28;4983695;28;20043;-69
2022/09/11 08:35:34;;;;;;;3.22;2.15;;;17.50;77.80;;;15.75;100.00;96173.03;4987039;28;20038;-69
2022/09/11 08:38:00;;;;;;;4.30;2.80;;;17.50;78.10;;;15.81;100.00;96168.69;4987399;28;20058;-69
2022/09/11 08:40:28;;;;;;;3.40;2.45;;;17.50;78.00;;;15.84;100.00;96170.91;4999068;28;20506;-69
2022/09/11 08:42:56;;;;;;;3.70;2.80;;;17.50;78.70;;;15.85;100.00;96178.66;4982411;28;20034;-68
2022/09/11 08:45:32;;;;;;;5.05;3.88;;;17.40;78.60;;;15.83;100.00;96172.75;4954708;28;20031;-68
2022/09/11 08:48:00;;;;;;;5.93;4.28;;;17.20;79.40;;;15.81;100.00;96164.19;4984249;28;20061;-68
2022/09/11 08:50:39;;;;;;;5.80;3.42;;;17.30;79.20;;;15.82;100.00;96170.31;4984660;28;20069;-68
2022/09/11 08:53:05;;;;;;;8.30;5.07;;;17.30;78.90;;;15.80;100.00;96175.84;4986051;28;20126;-69
2022/09/11 08:56:07;;;;;;;5.93;4.35;;;17.40;79.20;;;15.82;100.00;96172.97;4996045;28;20466;-68
2022/09/11 08:58:43;;;;;;;4.47;3.65;;;17.30;78.90;;;15.78;100.00;96185.84;4988037;28;20038;-68
2022/09/11 09:01:37;;;;;;;9.35;6.60;;;17.30;78.70;;;15.82;100.00;96176.44;5003242;28;20132;-68
2022/09/11 09:04:20;;;;;;;6.93;5.80;;;17.40;79.20;;;15.73;100.00;96183.06;4982979;28;20424;-69
2022/09/11 09:07:35;;;;;;;8.00;4.20;;;17.10;79.10;;;15.63;100.00;96182.75;4995323;28;20042;-68
2022/09/11 09:10:34;;;;;;;5.32;3.97;;;16.90;80.30;;;15.53;100.00;96191.16;5000017;28;20034;-68
2022/09/11 09:13:24;;;;;;;16.27;12.30;;;16.80;80.90;;;15.50;100.00;96194.25;4983138;28;20405;-69
2022/09/11 09:16:24;;;;;;;5.33;4.17;;;16.90;81.20;;;15.46;100.00;96197.56;4978906;28;20125;-69
2022/09/11 09:18:56;;;;;;;4.88;3.33;;;16.80;80.70;;;15.40;100.00;96195.78;4991722;28;20030;-69
2022/09/11 09:21:30;;;;;;;4.47;3.85;;;16.90;81.10;;;15.40;100.00;96191.28;4993841;28;20030;-69
2022/09/11 09:23:57;;;;;;;6.03;4.32;;;16.90;81.10;;;15.42;100.00;96204.31;5007157;28;20030;-69
2022/09/11 09:26:28;;;;;;;5.53;4.60;;;17.00;81.20;;;15.42;100.00;96199.03;5001575;28;20501;-68
2022/09/11 09:28:54;;;;;;;;;;;17.00;81.20;;;15.43;100.00;96203.28;4986241;28;20026;-69
2022/09/11 09:31:22;;;;;;;5.28;3.90;;;17.10;81.00;;;15.43;100.00;96214.72;4994743;28;19921;-69
2022/09/11 09:34:00;;;;;;;6.15;3.47;;;16.90;80.90;;;15.45;100.00;96220.59;4966950;28;20114;-71
2022/09/11 09:36:34;;;;;;;6.40;3.67;;;17.00;81.20;;;15.46;100.00;96213.47;4984412;28;20658;-70
2022/09/11 09:39:00;;;;;;;4.63;3.63;;;16.90;81.50;;;15.46;100.00;96218.75;4986088;28;20038;-68
2022/09/11 09:42:08;;;;;;;7.82;4.05;;;16.90;81.80;;;15.44;100.00;96210.22;4970392;28;20049;-69
2022/09/11 09:45:10;;;;;;;5.55;3.92;;;16.80;81.90;;;15.40;100.00;96209.03;5002833;28;20054;-70
2022/09/11 09:47:38;;;;;;;4.72;4.00;;;16.80;82.20;;;15.34;100.00;96215.97;5005046;28;20140;-69
2022/09/11 09:50:04;;;;;;;4.93;4.32;;;16.70;82.20;;;15.33;100.00;96217.81;4982586;28;20509;-69
2022/09/11 09:52:32;;;;;;;6.18;4.40;;;16.70;81.90;;;15.33;100.00;96219.66;4989703;28;20031;-69
2022/09/11 09:55:05;;;;;;;5.50;4.05;;;16.70;82.10;;;15.30;100.00;96215.59;4985120;28;20038;-72
2022/09/11 09:57:38;;;;;;;4.90;4.30;;;16.70;82.00;;;15.28;100.00;96222.16;5002451;28;20039;-69
2022/09/11 10:00:11;;;;;;;6.75;4.13;;;16.70;81.70;;;15.27;100.00;96225.84;4984165;28;20086;-71
2022/09/11 10:02:38;;;;;;;5.97;4.70;;;16.60;82.40;;;15.24;100.00;96232.38;4993718;28;20070;-68
2022/09/11 10:05:34;;;;;;;7.22;6.53;;;16.60;82.40;;;15.27;100.00;96231.94;5010908;28;20046;-70
2022/09/11 10:08:03;;;;;;;8.35;6.55;;;16.60;82.00;;;15.26;100.00;96235.63;4993823;28;20042;-69
2022/09/11 10:10:30;;;;;;;5.53;4.70;;;16.70;82.10;;;15.28;100.00;96228.25;5007559;28;20038;-69
2022/09/11 10:13:00;;;;;;;4.80;4.22;;;16.70;82.30;;;15.32;100.00;96229.47;4982929;28;20050;-70
2022/09/11 10:15:26;;;;;;;6.57;4.78;;;17.00;82.10;;;15.42;100.00;96226.34;4974078;28;20100;-70
2022/09/11 10:17:52;;;;;;;6.45;4.88;;;17.20;81.80;;;15.51;100.00;96221.56;4972791;28;20042;-68
2022/09/11 10:20:17;;;;;;;4.30;3.88;;;17.40;81.90;;;15.67;100.00;96226.38;4970908;28;20038;-68
2022/09/11 10:22:44;;;;;;;4.82;3.85;;;17.50;81.40;;;15.82;100.00;96218.84;4991398;28;20112;-71
2022/09/11 10:25:15;;;;;;;4.65;3.97;;;17.90;80.30;;;15.99;100.00;96234.22;4989488;28;20034;-69
2022/09/11 10:27:46;;;;;;;4.13;3.65;;;17.90;79.50;;;16.11;100.00;96227.97;4984777;28;20042;-68